Campanya meteocatpedra

Dades de l'estació automàtica Ascó

?
?
Resum diari 21:30 TU
Dades diàries de l'estació meteorològica
Temperatura mitjana 24.5 °C
Temperatura màxima 31.2 °C 12:31 TU
Temperatura mínima 20.4 °C 4:00 TU
Humitat relativa mitjana 62%
Precipitació acumulada 0.0 mm
Ratxa màxima del vent (2 m) 29.5 km/h - 154º 15:32 TU
Irradiació solar global 28.4 MJ/m2

El tram horari està expressat en Temps Universal (TU). Cal sumar una hora en horari d'hivern i dues en horari d'estiu per passar a l'hora oficial.

Ascó

Metadades estació meteorol´gica
Municipi Ascó
Comarca Ribera d'Ebre
Altitud 257 m
Data alta 15.06.1998
Estat actual Operativa
Dades de període
Període
TU
TM
°C
TX
°C
TN
°C
HRM
%
PPT
mm
VVM (2 m)
km/h
DVM (2 m)
graus
VVX (2 m)
km/h
RS
W/m2
00:00 - 00:30 20.8 20.9 20.8 77 0.0 7.6 176 17.6 0
00:30 - 01:00 20.7 20.8 20.6 77 0.0 7.2 167 16.6 0
01:00 - 01:30 20.6 20.6 20.6 77 0.0 7.9 165 21.6 0
01:30 - 02:00 20.6 20.6 20.6 77 0.0 8.6 167 19.4 0
02:00 - 02:30 20.5 20.6 20.4 77 0.0 8.3 166 19.4 0
02:30 - 03:00 20.4 20.4 20.4 78 0.0 8.3 166 19.8 0
03:00 - 03:30 20.4 20.4 20.4 78 0.0 6.8 165 16.6 0
03:30 - 04:00 20.4 20.4 20.4 78 0.0 6.8 166 15.5 0
04:00 - 04:30 20.5 20.5 20.4 78 0.0 5.8 160 15.5 1
04:30 - 05:00 20.6 20.6 20.5 77 0.0 2.9 142 11.5 8
05:00 - 05:30 20.6 20.7 20.6 77 0.0 5.8 164 14.0 48
05:30 - 06:00 21.3 21.6 20.7 75 0.0 6.5 163 14.4 186
06:00 - 06:30 22.0 22.3 21.6 72 0.0 6.8 164 13.7 273
06:30 - 07:00 22.7 23.3 22.2 70 0.0 6.5 174 14.4 364
07:00 - 07:30 23.5 23.9 23.1 66 0.0 5.4 136 13.0 350
07:30 - 08:00 23.9 24.7 23.3 61 0.0 3.6 204 11.2 308
08:00 - 08:30 25.1 25.6 24.4 53 0.0 2.9 147 9.4 479
08:30 - 09:00 26.2 26.8 25.6 50 0.0 4.0 216 11.2 668
09:00 - 09:30 26.1 26.7 25.8 53 0.0 8.6 31 20.2 816
09:30 - 10:00 26.7 27.4 26.2 51 0.0 7.9 44 20.9 844
10:00 - 10:30 27.6 28.3 27.0 47 0.0 7.2 15 16.9 890
10:30 - 11:00 27.7 28.5 27.5 46 0.0 6.5 61 18.7 932
11:00 - 11:30 28.9 29.4 28.5 41 0.0 6.5 48 20.2 950
11:30 - 12:00 29.7 30.1 29.2 35 0.0 6.8 31 18.4 858
12:00 - 12:30 29.9 31.0 29.2 33 0.0 5.8 75 13.0 651
12:30 - 13:00 29.7 31.2 28.9 42 0.0 8.3 151 22.0 690
13:00 - 13:30 29.2 29.7 28.8 47 0.0 11.5 172 27.4 912
13:30 - 14:00 29.1 29.4 28.8 49 0.0 11.2 166 25.6 886
14:00 - 14:30 28.7 29.0 28.2 51 0.0 11.2 175 24.8 796
14:30 - 15:00 28.2 28.5 28.0 53 0.0 11.9 168 26.6 761
15:00 - 15:30 28.0 28.3 27.4 54 0.0 11.9 168 25.9 688
15:30 - 16:00 27.4 27.5 27.2 56 0.0 11.2 174 29.5 611
16:00 - 16:30 27.0 27.5 26.7 56 0.0 10.4 181 24.8 532
16:30 - 17:00 26.7 26.9 26.5 57 0.0 9.7 175 28.4 435
17:00 - 17:30 26.5 26.7 26.2 57 0.0 9.4 173 25.2 354
17:30 - 18:00 25.9 26.2 25.6 59 0.0 10.8 169 26.3 293
18:00 - 18:30 25.2 25.6 24.8 61 0.0 9.7 167 25.2 156
18:30 - 19:00 24.4 24.8 24.0 64 0.0 7.6 175 19.1 35
19:00 - 19:30 23.7 24.0 23.4 66 0.0 6.5 183 19.4 13
19:30 - 20:00 22.9 23.3 22.5 67 0.0 6.1 182 19.8 2
20:00 - 20:30 22.2 22.5 21.9 70 0.0 6.1 178 17.3 0
20:30 - 21:00 21.6 21.9 21.4 72 0.0 5.0 175 15.8 0
21:00 - 21:30 21.2 21.4 21.1 74 0.0 4.7 176 15.5 0
21:30 - 22:00 21.0 21.1 21.0 75 0.0 6.1 166 16.9 0

Les dades en taronja només han passat un control de qualitat automàtic. Resta pendent la seva validació definitiva.